KSVE/SVE METAR and TAF weather

Enter ICAO airport designator
Station Type Date Time Source
KSVE METAR 2022/01/26 07:35 UTC NOAA

KSVE 260735Z AUTO 14003KT M05/M06 A3025 RMK AO2


Station Type Date Time Source
KSVE Decoded METAR 2022/01/26 07:35 UTC NOAA

Susanville Municipal, CA, United States (KSVE) 40-23N 120-34W
Jan 26, 2022 - 02:35 AM EST / 2022.01.26 0735 UTC
Wind: from the SE (140 degrees) at 3 MPH (3 KT):0
Temperature: 23 F (-5 C)
Dew Point: 21 F (-6 C)
Relative Humidity: 92%
Pressure (altimeter): 30.25 in. Hg (1024 hPa)
ob: KSVE 260735Z AUTO 14003KT M05/M06 A3025 RMK AO2
cycle: 7

Station Type Date Time Source
KSVE TAF UTC NOAA

Error!

Example: see airport list